KACB

Antrim County Airport

Bellaire, Michigan, USA
METAR KACB 251435Z AUTO 20004KT 10SM OVC012 21/18 A2988 RMK AO2 T02060177
Observed Flight Rules
Sep-25 @ 14:35 UTC (34 minutes ago) Marginal Visual Flight Rules
Wind Visibility Clouds
200° at 4 knots 10 miles
  • Overcast at 1,200' AGL
Temperatures Readings
Current 21°C / 70°F
Dewpoint 18°C / 64°F
Humidity 83%
Altimeter 29.88" Hg
Pressure 1012 hPa
Elevation 190
METAR KACB 251435Z AUTO 20004KT 10SM OVC012 21/18 A2988 RMK AO2 T02060177
Observed Flight Rules
Sep-25 @ 14:35 UTC
(34 minutes ago)
MVFR
Wind Visibility
200° at 4 knots 10 miles
Clouds
  • Overcast at 1,200' AGL
Temperature Dewpoint
21°C / 70°F 18°C / 64°F
Humidity Altimeter Pressure
83% 29.88" Hg 1012 hPa